createdAt,value
2023-03-26T00:00:00.559Z,7.2
2023-03-26T00:10:00.548Z,7.2
2023-03-26T00:20:00.549Z,7.2
2023-03-26T00:30:00.847Z,7.2
2023-03-26T00:40:01.113Z,7.1
2023-03-26T00:50:01.570Z,7.2
2023-03-26T01:00:00.591Z,7.3
2023-03-26T01:10:00.538Z,7.3
2023-03-26T01:20:00.538Z,7.4
2023-03-26T01:30:00.536Z,7.4
2023-03-26T01:40:00.566Z,7.4
2023-03-26T01:50:00.556Z,7.1
2023-03-26T02:00:00.555Z,7.2
2023-03-26T02:10:00.549Z,7.3
2023-03-26T02:20:00.793Z,7.2
2023-03-26T02:30:00.525Z,7.1
2023-03-26T02:40:00.537Z,7.0
2023-03-26T02:50:00.536Z,7.0
2023-03-26T03:00:00.538Z,7.1
2023-03-26T03:10:00.533Z,7.1
2023-03-26T03:20:00.523Z,7.2
2023-03-26T03:30:00.543Z,7.3
2023-03-26T03:40:00.548Z,7.4
2023-03-26T03:50:00.578Z,7.4
2023-03-26T04:00:00.547Z,7.3
2023-03-26T04:10:00.547Z,7.4
2023-03-26T04:20:00.522Z,7.5
2023-03-26T04:30:00.537Z,7.4
2023-03-26T04:40:00.548Z,7.3
2023-03-26T04:50:00.529Z,6.9
2023-03-26T05:00:00.532Z,7.2
2023-03-26T05:10:00.719Z,7.4
2023-03-26T05:20:00.542Z,7.6
2023-03-26T05:30:00.535Z,7.7
2023-03-26T05:40:00.539Z,7.9
2023-03-26T05:50:00.548Z,8.6
2023-03-26T06:00:00.542Z,9.4
2023-03-26T06:10:00.547Z,9.9
2023-03-26T06:20:00.518Z,10.9
2023-03-26T06:30:00.573Z,12.3
2023-03-26T06:40:00.537Z,12.4
2023-03-26T06:50:00.567Z,12.4
2023-03-26T07:00:00.640Z,12.5
2023-03-26T07:10:00.549Z,12.9
2023-03-26T07:20:00.583Z,13.2
2023-03-26T07:30:00.573Z,13.8
2023-03-26T07:40:00.529Z,14.5
2023-03-26T07:50:00.557Z,14.0
2023-03-26T08:00:00.523Z,12.7
2023-03-26T08:10:00.559Z,12.5
2023-03-26T08:20:00.537Z,12.9
2023-03-26T08:30:00.569Z,12.5
2023-03-26T08:40:00.523Z,12.8
2023-03-26T08:50:00.540Z,12.4
2023-03-26T09:00:02.676Z,12.9
2023-03-26T09:10:00.521Z,12.9
2023-03-26T09:20:00.548Z,12.4
2023-03-26T09:30:00.528Z,12.2
2023-03-26T09:40:00.523Z,12.1
2023-03-26T09:50:00.550Z,14.0
2023-03-26T10:00:00.573Z,15.7
2023-03-26T10:10:00.521Z,16.1
2023-03-26T10:20:00.541Z,17.1
2023-03-26T10:30:00.536Z,17.7
2023-03-26T10:40:00.560Z,17.0
2023-03-26T10:50:00.537Z,18.5
2023-03-26T11:00:00.532Z,18.8
2023-03-26T11:10:00.522Z,18.8
2023-03-26T11:20:00.529Z,18.8
2023-03-26T11:30:00.557Z,21.1
2023-03-26T11:40:00.526Z,18.7
2023-03-26T11:50:00.550Z,18.0
2023-03-26T12:00:00.541Z,19.4
2023-03-26T12:10:17.859Z,19.9
2023-03-26T12:20:00.522Z,18.1
2023-03-26T12:30:00.544Z,17.1
2023-03-26T12:40:10.486Z,17.6
2023-03-26T12:50:00.546Z,16.2
2023-03-26T13:00:00.542Z,16.3
2023-03-26T13:10:00.620Z,15.9
2023-03-26T13:20:00.589Z,18.7
2023-03-26T13:30:00.639Z,17.8
2023-03-26T13:40:00.513Z,16.8
2023-03-26T13:50:00.587Z,16.2
2023-03-26T14:00:00.526Z,16.5
2023-03-26T14:10:00.546Z,17.3
2023-03-26T14:20:00.561Z,18.8
2023-03-26T14:30:00.582Z,18.4
2023-03-26T14:40:00.555Z,17.8
2023-03-26T14:50:00.528Z,16.6
2023-03-26T15:00:00.537Z,17.0
2023-03-26T15:10:00.930Z,17.9
2023-03-26T15:20:00.573Z,18.1
2023-03-26T15:30:00.589Z,18.1
2023-03-26T15:40:00.660Z,17.0
2023-03-26T15:50:00.546Z,16.2
2023-03-26T16:00:00.536Z,15.6
2023-03-26T16:10:00.507Z,15.2
2023-03-26T16:20:00.523Z,14.6
2023-03-26T16:30:00.570Z,14.2
2023-03-26T16:40:00.535Z,13.7
2023-03-26T16:50:07.494Z,12.9
2023-03-26T17:00:06.129Z,11.9
2023-03-26T17:10:00.585Z,11.3
2023-03-26T17:20:00.560Z,11.0
2023-03-26T17:30:00.529Z,10.9
2023-03-26T17:40:00.542Z,11.0
2023-03-26T17:50:00.540Z,11.6
2023-03-26T18:00:00.550Z,11.9
2023-03-26T18:10:00.549Z,12.2
2023-03-26T18:20:00.551Z,12.2
2023-03-26T18:30:02.850Z,11.9
2023-03-26T18:40:00.521Z,11.6
2023-03-26T18:50:00.533Z,11.3
2023-03-26T19:00:00.545Z,11.2
2023-03-26T19:10:00.531Z,11.2
2023-03-26T19:20:00.843Z,10.8
2023-03-26T19:30:00.526Z,10.8
2023-03-26T19:40:00.554Z,10.6
2023-03-26T19:50:00.529Z,10.4
2023-03-26T20:00:00.567Z,10.7
2023-03-26T20:10:01.746Z,10.8
2023-03-26T20:20:00.578Z,10.6
2023-03-26T20:30:00.550Z,10.8
2023-03-26T20:40:00.507Z,10.8
2023-03-26T20:50:00.511Z,10.4
2023-03-26T21:00:00.539Z,10.9
2023-03-26T21:10:00.542Z,10.3
2023-03-26T21:20:00.555Z,9.9
2023-03-26T21:30:00.552Z,9.6
2023-03-26T21:40:00.690Z,9.6
2023-03-26T21:50:00.534Z,9.6
2023-03-26T22:00:00.580Z,9.4
2023-03-26T22:10:00.546Z,9.4
2023-03-26T22:20:00.544Z,9.2
2023-03-26T22:30:00.579Z,9.1
2023-03-26T22:40:00.553Z,8.8
2023-03-26T22:50:00.565Z,8.6
2023-03-26T23:00:00.528Z,8.5
2023-03-26T23:10:00.534Z,8.6
2023-03-26T23:20:00.516Z,8.5
2023-03-26T23:30:00.574Z,8.3
2023-03-26T23:40:00.577Z,8.3
2023-03-26T23:50:00.533Z,8.2
